S. JULIÀ DE VILATORTA (Osona)





Hora UTC 09:10
Temperatura 7.6 ºC
Humitat 100.0 %
Pressió 1002.1 hPa
Pluja 0.2 mm
Velocitat vent 2.6 km/h
Direcció vent WNW
Radiació solar 33.1 W/m²

Dades diàries 2022-12-10



Hora UTC (hivern +1h; estiu +2h)
Temperatura (ºC) Humitat (%) Pressió (hPa) Velocitat vent (km/h) Precipitació (mm) Radiació solar (W/m²)
Hora UTC Aire Humitat Pressió Vel. Dir. Vel. Max Dir. Intent. màx 5 min. Rad. Sol.
00:05 7.9 99.1 999.2 1.2 ESE 1.2 ESE 0.0 0.0
00:10 7.8 99.1 999.2 1.6 ESE 2.3 ESE 0.0 0.0
00:15 7.8 99.1 999.2 1.4 E 2.6 E 0.0 0.0
00:20 7.7 99.1 999.1 1.6 ENE 2.5 ENE 0.1 0.0
00:25 7.6 99.1 999.1 1.7 NE 2.6 NE 0.0 0.0
00:30 7.6 99.1 999.1 2.3 N 3.4 NNE 0.0 0.0
00:35 7.5 99.1 999.1 2.3 N 4.3 N 0.0 0.0
00:40 7.4 99.1 999.1 4.0 N 6.3 NNE 0.0 0.1
00:45 7.5 99.2 999.1 5.0 N 7.2 N 0.0 0.0
00:50 7.5 99.3 999.1 4.7 N 7.5 N 0.0 0.0
00:55 7.5 99.3 999.1 3.0 N 5.0 N 0.0 0.0
01:00 7.5 99.3 999.1 2.7 NNE 4.9 N 0.0 0.0
01:05 7.5 99.3 999.1 1.8 E 3.5 NNW 0.0 0.0
01:10 7.5 99.3 999.1 1.3 SSE 3.3 E 0.0 0.0
01:15 7.5 99.3 999.1 1.5 ESE 3.0 ENE 0.0 0.0
01:20 7.5 99.3 999.1 2.5 E 3.7 E 0.0 0.0
01:25 7.5 99.3 999.1 2.2 E 3.6 ESE 0.0 0.0
01:30 7.5 99.4 999.2 1.5 SE 4.1 ESE 0.0 0.0
01:35 7.5 99.4 999.2 1.3 ESE 2.6 ESE 0.0 0.0
01:40 7.5 99.4 999.2 1.6 ESE 2.4 SE 0.0 0.0
01:45 7.5 99.4 999.2 1.7 SE 3.2 SSE 0.0 0.0
01:50 7.5 99.4 999.2 2.1 ESE 3.5 ESE 0.0 0.0
01:55 7.4 99.4 999.3 2.0 SE 3.9 ESE 0.0 0.0
02:00 7.5 99.4 999.3 1.8 SE 3.0 ESE 0.0 0.0
02:05 7.5 99.5 999.3 1.5 E 2.7 E 0.0 0.0
02:10 7.4 99.4 999.3 1.6 ENE 3.0 E 0.0 0.0
02:15 7.4 99.4 999.4 2.0 NNE 4.3 NNE 0.0 0.0
02:20 7.3 99.4 999.5 1.5 E 4.4 N 0.0 0.0
02:25 7.3 99.4 999.5 1.3 SE 2.2 SE 0.0 0.0
02:30 7.3 99.5 999.5 1.5 E 3.6 SSE 0.0 0.0
02:35 7.4 99.5 999.4 2.1 SE 4.2 SSE 0.0 0.0
02:40 7.4 99.6 999.4 0.5 S 1.3 S 0.0 0.0
02:45 7.3 99.5 999.4 1.4 S 2.2 SSE 0.1 0.0
02:50 7.2 99.5 999.4 2.0 SSE 3.0 SSE 0.0 0.0
02:55 7.1 99.4 999.5 0.5 NNW 1.2 NNE 0.0 0.0
03:00 7.1 99.5 999.6 0.8 NNW 1.4 NNE 0.0 0.1
03:05 7.0 99.5 999.6 0.4 WSW 0.7 S 0.0 0.4
03:10 7.1 99.6 999.6 1.9 SSE 3.0 SSE 0.0 0.0
03:15 7.0 99.6 999.5 1.2 SE 2.7 SSE 0.0 0.0
03:20 7.0 99.6 999.5 1.7 SE 2.7 SE 0.0 0.0
03:25 7.0 99.6 999.5 2.1 E 2.8 E 0.0 0.1
03:30 6.9 99.6 999.5 1.3 SE 1.8 SSE 0.0 0.0
03:35 6.9 99.6 999.5 0.9 ESE 1.8 SE 0.0 0.0
03:40 6.8 99.6 999.5 1.9 NNE 3.1 NNE 0.0 0.3
03:45 6.8 99.6 999.5 2.0 NE 3.3 NE 0.0 0.2
03:50 6.8 99.6 999.5 0.9 WNW 1.7 NE 0.0 0.2
03:55 6.7 99.6 999.5 0.9 S 1.8 SSE 0.0 0.0
04:00 6.8 99.6 999.5 2.4 SSE 3.3 SSE 0.0 0.0
04:05 6.9 99.7 999.6 1.7 SSE 3.4 S 0.0 0.0
04:10 6.9 99.7 999.6 2.4 SE 3.3 ESE 0.0 0.0
04:15 7.0 99.7 999.6 2.3 ESE 3.7 E 0.0 0.0
04:20 7.0 99.7 999.6 2.6 ESE 4.4 ESE 0.0 0.0
04:25 7.0 99.7 999.6 2.3 ESE 3.7 E 0.0 0.0
04:30 7.0 99.7 999.6 2.5 E 3.9 ENE 0.0 0.0
04:35 6.9 99.7 999.7 2.6 E 4.6 ESE 0.0 0.0
04:40 7.0 99.7 999.7 2.3 ESE 3.6 ESE 0.0 0.0
04:45 7.1 99.8 999.6 2.7 SE 3.9 ESE 0.0 0.0
04:50 7.1 99.8 999.6 2.4 SE 4.0 SSE 0.0 0.0
04:55 7.0 99.8 999.6 2.4 SSE 4.2 SSE 0.0 0.0
05:00 7.0 99.8 999.6 2.1 SE 3.3 SE 0.0 0.0
05:05 7.1 99.8 999.6 1.4 SSE 2.5 SE 0.0 0.0
05:10 7.0 99.8 999.6 1.8 SE 3.7 ESE 0.0 0.0
05:15 6.9 99.8 999.6 2.4 SE 5.0 ESE 0.0 0.0
05:20 6.9 99.8 999.6 3.6 ESE 6.1 SE 0.0 0.0
05:25 6.9 99.8 999.7 2.8 ESE 4.4 E 0.0 0.0
05:30 6.7 99.8 999.8 1.7 ESE 3.5 E 0.0 0.0
05:35 6.6 99.7 999.8 1.8 E 3.8 E 0.0 0.0
05:40 6.5 99.7 999.8 1.9 SSE 2.7 SE 0.0 0.0
05:45 6.4 99.7 999.8 1.6 SE 3.0 SE 0.0 0.0
05:50 6.3 99.7 999.9 0.8 ESE 1.5 ENE 0.0 0.1
05:55 6.2 99.7 1000.0 1.6 N 2.7 NW 0.0 0.3
06:00 6.1 99.7 1000.1 3.3 NW 5.8 NNW 0.0 0.5
06:05 6.2 99.8 1000.1 2.6 WNW 4.8 NW 0.0 0.6
06:10 6.3 99.8 1000.2 1.5 SW 2.8 SW 0.0 0.2
06:15 6.2 99.8 1000.2 1.9 SSW 2.7 SSE 0.0 0.0
06:20 6.3 99.8 1000.2 3.1 SE 4.3 SE 0.0 0.0
06:25 6.5 99.9 1000.3 2.8 E 4.8 ENE 0.0 0.0
06:30 6.5 99.9 1000.4 2.1 SE 4.9 SSE 0.0 0.0
06:35 6.5 99.9 1000.5 3.2 SSE 4.8 SSE 0.0 0.0
06:40 6.5 99.9 1000.6 1.5 S 2.6 S 0.0 0.0
06:45 6.5 99.9 1000.7 1.7 SSE 3.0 SE 0.0 0.0
06:50 6.7 99.9 1000.7 1.7 SSE 3.0 SE 0.0 0.1
06:55 6.8 99.9 1000.8 2.6 SSE 4.0 SE 0.0 0.2
07:00 6.9 99.9 1000.8 4.1 SSE 5.8 SSE 0.0 0.5
07:05 7.0 99.9 1000.8 4.8 SE 6.6 SSE 0.0 0.9
07:10 7.0 100.0 1000.8 5.0 SSE 7.7 SE 0.0 1.6
07:15 7.0 100.0 1000.8 4.8 SE 7.1 SE 0.0 2.3
07:20 7.0 100.0 1000.8 4.2 SE 6.9 SSE 0.0 3.6
07:25 7.1 100.0 1000.9 3.3 SSE 5.1 SSE 0.0 4.4
07:30 7.0 100.0 1000.9 1.7 S 4.1 SSE 0.0 5.5
07:35 7.0 100.0 1000.9 2.2 SSE 4.6 S 0.0 6.2
07:40 7.1 100.0 1001.0 2.1 SSW 5.3 SE 0.0 6.2
07:45 7.2 100.0 1001.0 2.1 WSW 5.1 SSW 0.0 7.2
07:50 7.2 100.0 1001.1 1.8 SSE 4.3 S 0.0 9.4
07:55 7.3 100.0 1001.1 2.1 S 4.5 SSW 0.0 9.3
08:00 7.3 100.0 1001.2 2.0 S 4.1 SSE 0.0 9.8
08:05 7.3 100.0 1001.3 0.8 WNW 1.9 WNW 0.0 8.8
08:10 7.3 100.0 1001.3 0.5 NW 1.5 NNW 0.0 7.2
08:15 7.3 100.0 1001.3 1.0 SSE 2.4 S 0.0 11.1
08:20 7.4 100.0 1001.4 1.3 SSW 2.6 S 0.0 12.2
08:25 7.3 100.0 1001.5 0.8 S 2.1 S 0.0 8.3
08:30 7.4 100.0 1001.6 1.7 WNW 4.4 WNW 0.0 8.9
08:35 7.4 100.0 1001.7 1.6 WNW 6.3 W 0.0 15.2
08:40 7.4 100.0 1001.8 2.0 WSW 5.0 NW 0.0 22.7
08:45 7.5 100.0 1001.8 1.4 SW 4.6 W 0.0 50.1
08:50 7.6 100.0 1001.9 2.2 W 5.0 W 0.0 49.3
08:55 7.7 100.0 1001.9 1.8 SW 3.6 SSW 0.0 49.2
09:00 7.7 100.0 1002.0 2.1 W 6.6 W 0.0 62.8
09:05 7.7 100.0 1002.1 2.9 WNW 5.7 WNW 0.0 29.8
09:10 7.6 100.0 1002.1 2.6 WNW 6.3 WNW 0.0 33.1
Màxima 7.9 100.0 1002.1 5.0 SSE 7.7 SE 0.1 62.8
Mínima 6.1 99.1 999.1
Total 0.2